Hyundai New York — 9V2196 — position and weather

sailwx.info

Track history (hours):
 
Tides and Currents Weather Stations Pressure Air Temp Water Temp Dewpoint Dewpoint Depression Visibility Wind Speed Wind Dir Waves Ship Positions

Hyundai New York

Last reported at 2017-Dec-03 21:21 UTC. Time now 2017-Dec-12 17:59 UTC.
Position N 41°37' E 141°18'.
Warning: this ship's position is 8 days out of date.

Length 293 m; draft 11.8 m.

Type: Ship (hazmat cat A). MMSI: 566999000.

Date/timePositionNaut miles runAvg speedWind from/ knotsBaromVisibWave heightAir tempDewpointWater temp
2017-Dec-03 21:21N 41°37' E 141°18'719.5
2017-Dec-03 21:00N 41°37' E 141°09'1122.4
2017-Dec-03 20:31N 41°36' E 140°54'1121.3
2017-Dec-03 20:01N 41°31' E 140°42'1122.3
2017-Dec-03 19:30N 41°25' E 140°30'1223.4
2017-Dec-03 19:01N 41°18' E 140°17'  
2017-Nov-30 04:55N 31°07' E 122°16'613.2
2017-Nov-30 04:29N 31°10' E 122°11'611.0
2017-Nov-30 03:57N 31°14' E 122°05'914.9
2017-Nov-30 03:23N 31°15' E 121°55'614.1
2017-Nov-30 02:58N 31°17' E 121°49'912.4
2017-Nov-30 02:14N 31°21' E 121°39'3 9.1
2017-Nov-30 01:56N 31°22' E 121°36'1 0.9
2017-Nov-30 00:23N 31°22' E 121°35'0 0.0
2017-Nov-29 23:47N 31°22' E 121°35'0 0.0
2017-Nov-29 23:23N 31°22' E 121°35'0 0.0
2017-Nov-29 22:05N 31°22' E 121°35'0 0.3
2017-Nov-29 21:53N 31°22' E 121°35'0 0.0
2017-Nov-29 21:29N 31°22' E 121°35'0 0.1
2017-Nov-29 21:00N 31°22' E 121°35'0 0.0
2017-Nov-29 19:25N 31°22' E 121°35'0 0.1
2017-Nov-29 18:43N 31°22' E 121°35'0 0.0
2017-Nov-29 17:31N 31°22' E 121°35'0 0.1
2017-Nov-29 17:07N 31°22' E 121°35'0 0.0
2017-Nov-29 15:37N 31°22' E 121°35'0 0.3
2017-Nov-29 15:25N 31°22' E 121°35'0 0.0
2017-Nov-29 14:55N 31°22' E 121°35'0 0.0
2017-Nov-29 13:43N 31°22' E 121°35'0 0.2
2017-Nov-29 13:28N 31°22' E 121°35'0 0.1
2017-Nov-29 13:00N 31°23' E 121°35'2 3.6
2017-Nov-29 12:25N 31°22' E 121°37'511.5
2017-Nov-29 12:00N 31°20' E 121°42'610.9
2017-Nov-29 11:29N 31°18' E 121°48'510.4
2017-Nov-29 11:00N 31°16' E 121°54'611.7
2017-Nov-29 10:29N 31°15' E 122°01'510.8
2017-Nov-29 09:58N 31°13' E 122°07'4 9.1
2017-Nov-29 09:30N 31°11' E 122°11'4 7.1
2017-Nov-29 09:00N 31°09' E 122°14'4 7.9
2017-Nov-29 08:30N 31°06' E 122°18'5 8.0
2017-Nov-29 07:56N 31°06' E 122°23'3 7.4
2017-Nov-29 07:29N 31°06' E 122°27'52 4.3
2017-Nov-28 19:19N 30°24' E 123°03'  
Track history (hours):
 
Tides and Currents Weather Stations Pressure Air Temp Water Temp Dewpoint Dewpoint Depression Visibility Wind Speed Wind Dir Waves Ship Positions

Hyundai New York

Last reported at 2017-Dec-03 21:21 UTC. Time now 2017-Dec-12 17:59 UTC.
Position N 41°37' E 141°18'.
Warning: this ship's position is 8 days out of date.

Length 293 m; draft 11.8 m.

Type: Ship (hazmat cat A). MMSI: 566999000.

Date/timePositionNaut miles runAvg speedWind from/ knotsBaromVisibWave heightAir tempDewpointWater temp
2017-Dec-03 21:21N 41°37' E 141°18'719.5
2017-Dec-03 21:00N 41°37' E 141°09'1122.4
2017-Dec-03 20:31N 41°36' E 140°54'1121.3
2017-Dec-03 20:01N 41°31' E 140°42'1122.3
2017-Dec-03 19:30N 41°25' E 140°30'1223.4
2017-Dec-03 19:01N 41°18' E 140°17'  
2017-Nov-30 04:55N 31°07' E 122°16'613.2
2017-Nov-30 04:29N 31°10' E 122°11'611.0
2017-Nov-30 03:57N 31°14' E 122°05'914.9
2017-Nov-30 03:23N 31°15' E 121°55'614.1
2017-Nov-30 02:58N 31°17' E 121°49'912.4
2017-Nov-30 02:14N 31°21' E 121°39'3 9.1
2017-Nov-30 01:56N 31°22' E 121°36'1 0.9
2017-Nov-30 00:23N 31°22' E 121°35'0 0.0
2017-Nov-29 23:47N 31°22' E 121°35'0 0.0
2017-Nov-29 23:23N 31°22' E 121°35'0 0.0
2017-Nov-29 22:05N 31°22' E 121°35'0 0.3
2017-Nov-29 21:53N 31°22' E 121°35'0 0.0
2017-Nov-29 21:29N 31°22' E 121°35'0 0.1
2017-Nov-29 21:00N 31°22' E 121°35'0 0.0
2017-Nov-29 19:25N 31°22' E 121°35'0 0.1
2017-Nov-29 18:43N 31°22' E 121°35'0 0.0
2017-Nov-29 17:31N 31°22' E 121°35'0 0.1
2017-Nov-29 17:07N 31°22' E 121°35'0 0.0
2017-Nov-29 15:37N 31°22' E 121°35'0 0.3
2017-Nov-29 15:25N 31°22' E 121°35'0 0.0
2017-Nov-29 14:55N 31°22' E 121°35'0 0.0
2017-Nov-29 13:43N 31°22' E 121°35'0 0.2
2017-Nov-29 13:28N 31°22' E 121°35'0 0.1
2017-Nov-29 13:00N 31°23' E 121°35'2 3.6
2017-Nov-29 12:25N 31°22' E 121°37'511.5
2017-Nov-29 12:00N 31°20' E 121°42'610.9
2017-Nov-29 11:29N 31°18' E 121°48'510.4
2017-Nov-29 11:00N 31°16' E 121°54'611.7
2017-Nov-29 10:29N 31°15' E 122°01'510.8
2017-Nov-29 09:58N 31°13' E 122°07'4 9.1
2017-Nov-29 09:30N 31°11' E 122°11'4 7.1
2017-Nov-29 09:00N 31°09' E 122°14'4 7.9
2017-Nov-29 08:30N 31°06' E 122°18'5 8.0
2017-Nov-29 07:56N 31°06' E 122°23'3 7.4
2017-Nov-29 07:29N 31°06' E 122°27'52 4.3
2017-Nov-28 19:19N 30°24' E 123°03'  

Dump ship's entire track history